createdAt,value
2018-10-09T00:01:54.770Z,99.90
2018-10-09T00:04:23.259Z,99.90
2018-10-09T00:06:51.805Z,99.90
2018-10-09T00:09:20.350Z,99.90
2018-10-09T00:11:48.860Z,99.90
2018-10-09T00:14:17.378Z,99.90
2018-10-09T00:16:45.989Z,99.90
2018-10-09T00:19:14.461Z,99.90
2018-10-09T00:21:42.934Z,99.90
2018-10-09T00:24:11.462Z,99.90
2018-10-09T00:26:39.977Z,99.90
2018-10-09T00:29:08.474Z,99.90
2018-10-09T00:31:37.042Z,99.90
2018-10-09T00:34:05.661Z,99.90
2018-10-09T00:36:34.347Z,99.90
2018-10-09T00:39:03.017Z,99.90
2018-10-09T00:41:31.541Z,99.90
2018-10-09T00:44:00.049Z,99.90
2018-10-09T00:46:28.572Z,99.90
2018-10-09T00:48:57.151Z,99.90
2018-10-09T00:51:25.704Z,99.90
2018-10-09T00:53:54.232Z,99.90
2018-10-09T00:56:22.794Z,99.90
2018-10-09T00:58:51.361Z,99.90
2018-10-09T01:01:19.949Z,99.90
2018-10-09T01:03:48.452Z,99.90
2018-10-09T01:06:17.021Z,99.90
2018-10-09T01:08:45.494Z,99.90
2018-10-09T01:11:13.992Z,99.90
2018-10-09T01:13:42.474Z,99.90
2018-10-09T01:16:11.002Z,99.90
2018-10-09T01:18:39.534Z,99.90
2018-10-09T01:21:08.229Z,99.90
2018-10-09T01:23:36.719Z,99.90
2018-10-09T01:26:05.260Z,99.90
2018-10-09T01:28:33.746Z,99.90
2018-10-09T01:31:02.249Z,99.90
2018-10-09T01:33:30.729Z,99.90
2018-10-09T01:35:59.234Z,99.90
2018-10-09T01:38:27.702Z,99.90
2018-10-09T01:40:56.259Z,99.90
2018-10-09T01:43:24.765Z,99.90
2018-10-09T01:45:53.232Z,99.90
2018-10-09T01:48:21.716Z,99.90
2018-10-09T01:50:50.203Z,99.90
2018-10-09T01:53:18.710Z,99.90
2018-10-09T01:55:47.234Z,99.90
2018-10-09T01:58:15.729Z,99.90
2018-10-09T02:00:44.223Z,99.90
2018-10-09T02:03:12.737Z,99.90
2018-10-09T02:05:41.234Z,99.90
2018-10-09T02:08:09.742Z,99.90
2018-10-09T02:10:38.241Z,99.90
2018-10-09T02:13:06.802Z,99.90
2018-10-09T02:15:35.261Z,99.90
2018-10-09T02:18:03.783Z,99.90
2018-10-09T02:20:32.251Z,99.90
2018-10-09T02:23:00.756Z,99.90
2018-10-09T02:25:29.239Z,99.90
2018-10-09T02:27:57.765Z,99.90
2018-10-09T02:30:26.318Z,99.90
2018-10-09T02:32:54.791Z,99.90
2018-10-09T02:35:23.293Z,99.90
2018-10-09T02:37:51.854Z,99.90
2018-10-09T02:40:20.358Z,99.90
2018-10-09T02:42:48.856Z,99.90
2018-10-09T02:45:17.364Z,99.90
2018-10-09T02:47:45.863Z,99.90
2018-10-09T02:50:14.370Z,99.90
2018-10-09T02:52:42.850Z,99.90
2018-10-09T02:55:11.365Z,99.90
2018-10-09T02:57:39.847Z,99.90
2018-10-09T03:00:08.458Z,99.90
2018-10-09T03:02:37.156Z,99.90
2018-10-09T03:05:05.710Z,99.90
2018-10-09T03:07:34.286Z,99.90
2018-10-09T03:10:02.891Z,99.90
2018-10-09T03:12:31.386Z,99.90
2018-10-09T03:14:59.897Z,99.90
2018-10-09T03:17:28.499Z,99.90
2018-10-09T03:19:56.989Z,99.90
2018-10-09T03:22:25.878Z,99.90
2018-10-09T03:24:54.420Z,99.90
2018-10-09T03:27:22.974Z,99.90
2018-10-09T03:29:52.497Z,99.90
2018-10-09T03:32:22.498Z,99.90
2018-10-09T03:34:51.196Z,99.90
2018-10-09T03:37:21.371Z,99.90
2018-10-09T03:39:50.317Z,99.90
2018-10-09T03:42:19.787Z,99.90
2018-10-09T03:44:48.838Z,99.90
2018-10-09T03:47:17.813Z,99.90
2018-10-09T03:49:47.376Z,99.90
2018-10-09T03:52:16.538Z,99.90
2018-10-09T03:54:46.194Z,99.90
2018-10-09T03:57:15.672Z,99.90
2018-10-09T03:59:45.334Z,99.90
2018-10-09T04:02:13.934Z,99.90
2018-10-09T04:04:42.515Z,99.90
2018-10-09T04:07:11.005Z,99.90
2018-10-09T04:09:39.547Z,99.90
2018-10-09T04:12:08.075Z,99.90
2018-10-09T04:14:36.605Z,99.90
2018-10-09T04:17:05.315Z,99.90
2018-10-09T04:19:33.889Z,99.90
2018-10-09T04:22:02.350Z,99.90
2018-10-09T04:24:30.813Z,99.90
2018-10-09T04:26:59.327Z,99.90
2018-10-09T04:29:27.882Z,99.90
2018-10-09T04:31:56.349Z,99.90
2018-10-09T04:34:24.806Z,99.90
2018-10-09T04:36:53.337Z,99.90
2018-10-09T04:39:21.833Z,99.90
2018-10-09T04:41:50.366Z,99.90
2018-10-09T04:44:18.866Z,99.90
2018-10-09T04:46:47.326Z,99.90
2018-10-09T04:49:16.376Z,99.90
2018-10-09T04:51:44.988Z,99.90
2018-10-09T04:54:13.543Z,99.90
2018-10-09T04:56:42.012Z,99.90
2018-10-09T04:59:10.591Z,99.90
2018-10-09T05:01:39.098Z,99.90
2018-10-09T05:04:07.653Z,99.90
2018-10-09T05:06:36.261Z,99.90
2018-10-09T05:09:08.982Z,99.90
2018-10-09T05:11:37.526Z,99.90
2018-10-09T05:14:06.017Z,99.90
2018-10-09T05:16:34.549Z,99.90
2018-10-09T05:19:03.077Z,99.90
2018-10-09T05:21:31.633Z,99.90
2018-10-09T05:24:00.251Z,99.90
2018-10-09T05:26:29.081Z,99.90
2018-10-09T05:28:57.613Z,99.90
2018-10-09T05:31:26.339Z,99.90
2018-10-09T05:33:54.963Z,99.90
2018-10-09T05:36:23.546Z,99.90
2018-10-09T05:38:53.182Z,99.90
2018-10-09T05:41:21.758Z,99.90
2018-10-09T05:43:50.551Z,99.90
2018-10-09T05:46:19.229Z,99.90
2018-10-09T05:48:47.861Z,99.90
2018-10-09T05:51:16.401Z,99.90
2018-10-09T05:53:44.964Z,99.90
2018-10-09T05:56:13.519Z,99.90
2018-10-09T05:58:42.027Z,99.90
2018-10-09T06:01:10.549Z,99.90
2018-10-09T06:03:39.092Z,99.90
2018-10-09T06:06:07.756Z,99.90
2018-10-09T06:08:36.370Z,99.90
2018-10-09T06:11:18.844Z,99.90
2018-10-09T06:14:07.162Z,99.90
2018-10-09T06:16:44.455Z,99.90
2018-10-09T06:19:13.722Z,99.90
2018-10-09T06:21:42.265Z,99.90
2018-10-09T06:24:11.169Z,99.90
2018-10-09T06:26:39.955Z,99.90
2018-10-09T06:29:09.113Z,99.90
2018-10-09T06:31:37.654Z,99.90
2018-10-09T06:34:06.285Z,99.90
2018-10-09T06:36:34.746Z,99.90
2018-10-09T06:39:03.810Z,99.90
2018-10-09T06:41:32.437Z,99.90
2018-10-09T06:44:00.960Z,99.90
2018-10-09T06:46:29.658Z,99.90
2018-10-09T06:48:58.214Z,99.90
2018-10-09T06:51:26.793Z,99.90
2018-10-09T06:53:56.543Z,99.90
2018-10-09T06:56:24.896Z,99.90
2018-10-09T06:58:53.517Z,99.90
2018-10-09T07:01:22.283Z,99.90
2018-10-09T07:04:53.478Z,99.90
2018-10-09T07:07:22.161Z,99.90
2018-10-09T07:09:51.233Z,99.90
2018-10-09T07:12:19.760Z,99.90
2018-10-09T07:14:48.396Z,99.90
2018-10-09T07:17:16.911Z,99.90
2018-10-09T07:19:45.406Z,99.90
2018-10-09T07:22:13.964Z,99.90
2018-10-09T07:24:42.779Z,99.90
2018-10-09T07:27:11.299Z,99.90
2018-10-09T07:29:39.773Z,99.90
2018-10-09T07:32:08.627Z,99.90
2018-10-09T07:34:37.301Z,99.90
2018-10-09T07:37:06.242Z,99.90
2018-10-09T07:39:34.729Z,99.90
2018-10-09T07:42:03.286Z,99.90
2018-10-09T07:44:31.835Z,99.90
2018-10-09T07:47:00.345Z,99.90
2018-10-09T07:49:28.886Z,99.90
2018-10-09T07:51:57.371Z,99.90
2018-10-09T07:54:26.023Z,99.90
2018-10-09T07:56:54.508Z,99.90
2018-10-09T07:59:23.015Z,99.90
2018-10-09T08:01:51.486Z,99.90
2018-10-09T08:04:19.994Z,99.90
2018-10-09T08:06:48.497Z,99.90
2018-10-09T08:09:17.031Z,99.90
2018-10-09T08:11:45.525Z,99.90
2018-10-09T08:14:14.038Z,99.90
2018-10-09T08:16:42.525Z,99.90
2018-10-09T08:19:11.006Z,99.90
2018-10-09T08:21:39.523Z,99.90
2018-10-09T08:24:08.136Z,99.90
2018-10-09T08:26:36.664Z,99.90
2018-10-09T08:29:05.200Z,99.90
2018-10-09T08:31:33.972Z,99.90
2018-10-09T08:34:02.463Z,99.90
2018-10-09T08:36:30.999Z,99.90
2018-10-09T08:38:59.463Z,99.90
2018-10-09T08:41:27.931Z,99.90
2018-10-09T08:43:56.388Z,99.90
2018-10-09T08:46:24.966Z,99.90
2018-10-09T08:48:53.453Z,99.90
2018-10-09T08:51:21.994Z,99.90
2018-10-09T08:53:50.479Z,99.90
2018-10-09T08:56:18.961Z,99.90
2018-10-09T08:58:47.427Z,99.90
2018-10-09T09:01:15.962Z,99.90
2018-10-09T09:06:19.165Z,99.90
2018-10-09T09:08:47.649Z,99.90
2018-10-09T09:11:16.356Z,99.90
2018-10-09T09:13:44.839Z,99.90
2018-10-09T09:16:13.312Z,99.90
2018-10-09T09:18:41.758Z,99.90
2018-10-09T09:21:10.350Z,99.90
2018-10-09T09:23:38.883Z,99.90
2018-10-09T09:26:07.635Z,99.90
2018-10-09T09:28:36.355Z,99.90
2018-10-09T09:31:04.861Z,99.90
2018-10-09T09:33:33.369Z,99.90
2018-10-09T09:36:01.929Z,99.90
2018-10-09T09:38:30.476Z,99.90
2018-10-09T09:40:59.055Z,99.90
2018-10-09T09:43:27.556Z,99.90
2018-10-09T09:45:56.258Z,99.90
2018-10-09T09:48:24.639Z,99.90
2018-10-09T09:50:53.170Z,99.90
2018-10-09T09:53:21.631Z,99.90
2018-10-09T09:55:50.140Z,99.90
2018-10-09T09:58:18.838Z,99.90
2018-10-09T10:00:53.153Z,99.90
2018-10-09T10:03:21.660Z,98.20
2018-10-09T10:05:50.215Z,98.50
2018-10-09T10:08:18.795Z,99.90
2018-10-09T10:10:47.408Z,98.60
2018-10-09T10:13:16.130Z,99.00
2018-10-09T10:15:44.684Z,99.40
2018-10-09T10:18:13.165Z,98.20
2018-10-09T10:20:41.655Z,96.80
2018-10-09T10:23:10.185Z,95.70
2018-10-09T10:25:38.692Z,95.60
2018-10-09T10:28:07.334Z,96.00
2018-10-09T10:30:35.802Z,95.80
2018-10-09T10:33:04.418Z,95.90
2018-10-09T10:35:32.918Z,94.00
2018-10-09T10:38:01.394Z,93.40
2018-10-09T10:40:29.903Z,92.50
2018-10-09T10:42:58.341Z,92.70
2018-10-09T10:45:26.806Z,91.50
2018-10-09T10:47:55.269Z,92.30
2018-10-09T10:50:23.750Z,90.20
2018-10-09T10:52:52.267Z,86.70
2018-10-09T10:55:20.832Z,83.40
2018-10-09T10:57:51.469Z,81.40
2018-10-09T11:00:20.702Z,78.60
2018-10-09T11:02:49.265Z,80.60
2018-10-09T11:05:17.736Z,80.20
2018-10-09T11:07:46.896Z,79.30
2018-10-09T11:10:15.421Z,77.10
2018-10-09T11:12:43.947Z,75.70
2018-10-09T11:15:12.448Z,75.30
2018-10-09T11:17:40.932Z,75.00
2018-10-09T11:22:37.617Z,74.90
2018-10-09T11:25:06.116Z,71.90
2018-10-09T11:27:37.243Z,73.50
2018-10-09T11:30:05.914Z,72.00
2018-10-09T11:32:34.467Z,74.90
2018-10-09T11:35:03.663Z,72.40
2018-10-09T11:37:32.105Z,74.20
2018-10-09T11:40:00.559Z,72.20
2018-10-09T11:42:29.047Z,77.00
2018-10-09T11:47:25.717Z,84.90
2018-10-09T11:49:54.230Z,87.80
2018-10-09T11:52:22.730Z,91.00
2018-10-09T11:54:51.523Z,94.20
2018-10-09T11:59:48.868Z,94.50
2018-10-09T12:02:17.477Z,98.10
2018-10-09T12:04:45.991Z,99.20
2018-10-09T12:09:43.783Z,99.90
2018-10-09T12:12:12.269Z,99.90
2018-10-09T12:19:37.045Z,99.90
2018-10-09T12:22:05.630Z,96.90
2018-10-09T12:24:34.135Z,91.70
2018-10-09T12:27:02.658Z,90.20
2018-10-09T12:29:31.182Z,87.80
2018-10-09T12:31:59.671Z,84.80
2018-10-09T12:34:28.595Z,80.40
2018-10-09T12:36:57.313Z,76.70
2018-10-09T12:39:25.985Z,75.20
2018-10-09T12:41:54.562Z,74.40
2018-10-09T12:44:23.229Z,75.50
2018-10-09T12:46:51.605Z,73.00
2018-10-09T12:49:20.083Z,72.30
2018-10-09T12:51:48.619Z,73.70
2018-10-09T12:54:17.148Z,78.70
2018-10-09T12:56:45.661Z,86.40
2018-10-09T12:59:14.118Z,90.90
2018-10-09T13:01:42.612Z,90.70
2018-10-09T13:04:11.167Z,89.60
2018-10-09T13:06:39.648Z,87.50
2018-10-09T13:09:10.066Z,82.00
2018-10-09T13:11:38.657Z,78.50
2018-10-09T13:14:07.185Z,72.90
2018-10-09T13:16:35.681Z,71.10
2018-10-09T13:19:04.244Z,70.00
2018-10-09T13:21:33.106Z,71.10
2018-10-09T13:24:01.350Z,73.40
2018-10-09T13:26:29.867Z,74.60
2018-10-09T13:28:58.326Z,77.70
2018-10-09T13:36:23.193Z,78.30
2018-10-09T13:38:51.696Z,78.20
2018-10-09T13:41:20.197Z,80.20
2018-10-09T13:43:48.641Z,83.50
2018-10-09T13:46:17.181Z,86.70
2018-10-09T13:48:46.162Z,90.70
2018-10-09T13:51:14.732Z,92.70
2018-10-09T13:53:43.212Z,94.40
2018-10-09T13:56:11.673Z,93.40
2018-10-09T13:58:40.138Z,93.00
2018-10-09T14:01:08.636Z,92.00
2018-10-09T14:03:37.115Z,90.70
2018-10-09T14:06:05.622Z,90.10
2018-10-09T14:08:34.318Z,89.40
2018-10-09T14:11:02.776Z,88.00
2018-10-09T14:13:31.241Z,82.80
2018-10-09T14:15:59.704Z,81.40
2018-10-09T14:18:28.149Z,83.60
2018-10-09T14:20:56.723Z,91.00
2018-10-09T14:23:25.179Z,93.10
2018-10-09T14:25:53.726Z,94.90
2018-10-09T14:28:22.153Z,96.60
2018-10-09T14:33:18.739Z,98.50
2018-10-09T14:35:48.143Z,99.70
2018-10-09T14:38:16.675Z,99.90
2018-10-09T14:40:45.123Z,99.90
2018-10-09T14:43:13.570Z,99.90
2018-10-09T14:45:42.034Z,99.90
2018-10-09T14:48:10.513Z,99.90
2018-10-09T14:50:38.994Z,99.90
2018-10-09T14:53:07.497Z,99.90
2018-10-09T14:55:35.958Z,99.90
2018-10-09T14:58:04.446Z,99.90
2018-10-09T15:00:32.940Z,99.90
2018-10-09T15:03:01.406Z,99.90
2018-10-09T15:05:29.879Z,99.90
2018-10-09T15:07:58.335Z,99.90
2018-10-09T15:10:26.814Z,99.90
2018-10-09T15:12:55.242Z,99.90
2018-10-09T15:15:23.753Z,99.90
2018-10-09T15:17:52.327Z,99.90
2018-10-09T15:20:20.794Z,99.90
2018-10-09T15:22:49.279Z,99.90
2018-10-09T15:25:17.779Z,99.90
2018-10-09T15:27:46.335Z,99.90
2018-10-09T15:30:14.815Z,99.90
2018-10-09T15:32:43.273Z,99.90
2018-10-09T15:35:11.784Z,99.90
2018-10-09T15:37:40.270Z,99.90
2018-10-09T15:40:08.874Z,99.90
2018-10-09T15:42:37.364Z,99.90
2018-10-09T15:45:06.236Z,99.90
2018-10-09T15:47:34.731Z,99.90
2018-10-09T15:50:03.278Z,99.90
2018-10-09T15:52:31.849Z,99.90
2018-10-09T15:55:00.315Z,99.90
2018-10-09T15:57:28.842Z,99.90
2018-10-09T15:59:57.330Z,99.90
2018-10-09T16:02:25.816Z,99.90
2018-10-09T16:04:54.336Z,99.90
2018-10-09T16:07:23.055Z,99.90
2018-10-09T16:09:51.628Z,99.90
2018-10-09T16:12:20.091Z,99.90
2018-10-09T16:14:48.591Z,99.90
2018-10-09T16:17:17.073Z,99.90
2018-10-09T16:19:45.569Z,99.90
2018-10-09T16:22:14.054Z,99.90
2018-10-09T16:24:42.531Z,99.90
2018-10-09T16:27:11.079Z,99.90
2018-10-09T16:29:39.599Z,99.90
2018-10-09T16:32:08.083Z,99.90
2018-10-09T16:34:36.714Z,99.90
2018-10-09T16:37:06.183Z,99.90
2018-10-09T16:39:34.642Z,99.90
2018-10-09T16:42:03.170Z,99.90
2018-10-09T16:44:31.642Z,99.90
2018-10-09T16:47:04.162Z,99.90
2018-10-09T16:49:33.199Z,99.90
2018-10-09T16:52:01.723Z,99.90
2018-10-09T16:54:30.234Z,99.90
2018-10-09T16:56:58.713Z,99.90
2018-10-09T16:59:27.203Z,99.90
2018-10-09T17:01:55.779Z,99.90
2018-10-09T17:04:24.707Z,99.90
2018-10-09T17:06:53.251Z,99.90
2018-10-09T17:09:21.695Z,99.90
2018-10-09T17:11:50.179Z,99.90
2018-10-09T17:14:18.670Z,99.90
2018-10-09T17:16:47.127Z,99.90
2018-10-09T17:19:15.651Z,99.90
2018-10-09T17:21:44.135Z,99.90
2018-10-09T17:24:12.629Z,99.90
2018-10-09T17:26:41.085Z,99.90
2018-10-09T17:29:09.569Z,99.90
2018-10-09T17:31:38.187Z,99.90
2018-10-09T17:34:06.741Z,99.90
2018-10-09T17:36:35.246Z,99.90
2018-10-09T17:39:05.485Z,99.90
2018-10-09T17:41:33.969Z,99.90
2018-10-09T17:44:02.491Z,99.90
2018-10-09T17:46:31.142Z,99.90
2018-10-09T17:48:59.524Z,99.90
2018-10-09T17:51:27.985Z,99.90
2018-10-09T17:53:56.454Z,99.90
2018-10-09T17:56:24.917Z,99.90
2018-10-09T17:58:53.399Z,99.90
2018-10-09T18:01:21.878Z,99.90
2018-10-09T18:03:57.011Z,99.90
2018-10-09T18:06:25.522Z,99.90
2018-10-09T18:08:54.035Z,99.90
2018-10-09T18:11:22.521Z,99.90
2018-10-09T18:13:50.986Z,99.90
2018-10-09T18:16:21.081Z,99.90
2018-10-09T18:18:49.593Z,99.90
2018-10-09T18:21:18.064Z,99.90
2018-10-09T18:23:46.650Z,99.90
2018-10-09T18:26:15.290Z,99.90
2018-10-09T18:28:43.751Z,99.90
2018-10-09T18:31:12.187Z,99.90
2018-10-09T18:33:40.730Z,99.90
2018-10-09T18:36:09.226Z,99.90
2018-10-09T18:38:37.693Z,99.90
2018-10-09T18:41:06.218Z,99.90
2018-10-09T18:43:34.698Z,99.90
2018-10-09T18:46:03.174Z,99.90
2018-10-09T18:48:31.644Z,99.90
2018-10-09T18:51:00.118Z,99.90
2018-10-09T18:53:28.587Z,99.90
2018-10-09T18:55:57.100Z,99.90
2018-10-09T18:58:25.544Z,99.90
2018-10-09T19:01:00.446Z,99.90
2018-10-09T19:03:29.533Z,99.90
2018-10-09T19:05:58.048Z,99.90
2018-10-09T19:08:26.740Z,99.90
2018-10-09T19:10:55.275Z,99.90
2018-10-09T19:13:23.743Z,99.90
2018-10-09T19:15:52.217Z,99.90
2018-10-09T19:18:20.727Z,99.90
2018-10-09T19:20:49.235Z,99.90
2018-10-09T19:23:17.724Z,99.90
2018-10-09T19:25:46.152Z,99.90
2018-10-09T19:28:14.597Z,99.90
2018-10-09T19:30:43.063Z,99.90
2018-10-09T19:33:11.516Z,99.90
2018-10-09T19:35:40.072Z,99.90
2018-10-09T19:38:08.598Z,99.90
2018-10-09T19:40:37.145Z,99.90
2018-10-09T19:43:05.710Z,99.90
2018-10-09T19:45:34.192Z,99.90
2018-10-09T19:48:02.703Z,99.90
2018-10-09T19:50:31.194Z,99.90
2018-10-09T19:52:59.619Z,99.90
2018-10-09T19:55:28.145Z,99.90
2018-10-09T19:57:56.590Z,99.90
2018-10-09T20:00:25.094Z,99.90
2018-10-09T20:02:53.551Z,99.90
2018-10-09T20:05:22.037Z,99.90
2018-10-09T20:07:50.543Z,99.90
2018-10-09T20:10:18.974Z,99.90
2018-10-09T20:12:47.430Z,99.90
2018-10-09T20:15:16.038Z,99.90
2018-10-09T20:17:44.715Z,99.90
2018-10-09T20:20:13.967Z,99.90
2018-10-09T20:22:42.443Z,99.90
2018-10-09T20:25:10.938Z,99.90
2018-10-09T20:27:39.429Z,99.90
2018-10-09T20:30:08.239Z,99.90
2018-10-09T20:32:37.303Z,99.90
2018-10-09T20:35:06.010Z,99.90
2018-10-09T20:37:34.624Z,99.90
2018-10-09T20:40:03.166Z,99.90
2018-10-09T20:42:31.698Z,99.90
2018-10-09T20:45:00.150Z,99.90
2018-10-09T20:47:34.001Z,99.90
2018-10-09T20:50:02.523Z,99.90
2018-10-09T20:52:31.090Z,99.90
2018-10-09T20:54:59.574Z,99.90
2018-10-09T20:57:28.042Z,99.90
2018-10-09T20:59:56.563Z,99.90
2018-10-09T21:02:25.038Z,99.90
2018-10-09T21:04:53.519Z,99.90
2018-10-09T21:07:21.999Z,99.90
2018-10-09T21:09:50.456Z,99.90
2018-10-09T21:12:18.926Z,99.90
2018-10-09T21:14:47.372Z,99.90
2018-10-09T21:17:15.879Z,99.90
2018-10-09T21:19:44.319Z,99.90
2018-10-09T21:22:12.786Z,99.90
2018-10-09T21:24:41.255Z,99.90
2018-10-09T21:27:09.707Z,99.90
2018-10-09T21:29:38.198Z,99.90
2018-10-09T21:32:06.689Z,99.90
2018-10-09T21:34:35.303Z,99.90
2018-10-09T21:37:04.115Z,99.90
2018-10-09T21:39:32.607Z,99.90
2018-10-09T21:42:01.089Z,99.90
2018-10-09T21:44:29.611Z,99.90
2018-10-09T21:46:58.676Z,99.90
2018-10-09T21:49:27.363Z,99.90
2018-10-09T21:51:55.812Z,99.90
2018-10-09T21:54:24.626Z,99.90
2018-10-09T21:56:53.394Z,99.90
2018-10-09T21:59:21.922Z,99.90
2018-10-09T22:01:50.385Z,99.90
2018-10-09T22:04:19.572Z,99.90
2018-10-09T22:06:48.001Z,99.90
2018-10-09T22:09:16.478Z,99.90
2018-10-09T22:11:44.986Z,99.90
2018-10-09T22:14:13.454Z,99.90
2018-10-09T22:16:42.570Z,99.90
2018-10-09T22:19:11.019Z,99.90
2018-10-09T22:21:39.485Z,99.90
2018-10-09T22:24:08.075Z,99.90
2018-10-09T22:26:36.532Z,99.90
2018-10-09T22:29:05.045Z,99.90
2018-10-09T22:31:33.621Z,99.90
2018-10-09T22:34:02.082Z,99.90
2018-10-09T22:36:30.639Z,99.90
2018-10-09T22:38:59.088Z,99.90
2018-10-09T22:41:27.546Z,99.90
2018-10-09T22:43:56.046Z,99.90
2018-10-09T22:46:24.414Z,99.90
2018-10-09T22:48:52.894Z,99.90
2018-10-09T22:51:21.350Z,99.90
2018-10-09T22:53:49.894Z,99.90
2018-10-09T22:56:18.339Z,99.90
2018-10-09T22:58:46.795Z,99.90
2018-10-09T23:01:15.254Z,99.90
2018-10-09T23:03:43.696Z,99.90
2018-10-09T23:06:12.173Z,99.90
2018-10-09T23:08:40.666Z,99.90
2018-10-09T23:11:09.430Z,99.90
2018-10-09T23:13:37.878Z,99.90
2018-10-09T23:16:06.667Z,99.90
2018-10-09T23:18:35.118Z,99.90
2018-10-09T23:21:03.591Z,99.90
2018-10-09T23:23:32.064Z,99.90
2018-10-09T23:26:00.519Z,99.90
2018-10-09T23:28:28.988Z,99.90
2018-10-09T23:30:57.474Z,99.90
2018-10-09T23:33:25.978Z,99.90
2018-10-09T23:35:54.448Z,99.90
2018-10-09T23:38:22.890Z,99.90
2018-10-09T23:40:51.334Z,99.90
2018-10-09T23:43:19.797Z,99.90
2018-10-09T23:45:48.332Z,99.90
2018-10-09T23:48:16.808Z,99.90
2018-10-09T23:50:45.294Z,99.90
2018-10-09T23:53:13.792Z,99.90
2018-10-09T23:55:42.244Z,99.90
2018-10-09T23:58:10.751Z,99.90
